Time;durP1;ratioP1;P1;durP2;ratioP2;P2;SDS_P1;SDS_P2;PMS_P1;PMS_P2;Temp;Humidity;BMP_temperature;BMP_pressure;BME280_temperature;BME280_humidity;BME280_pressure;Samples;Min_cycle;Max_cycle;Signal;HPM_P1;HPM_P2
2021/10/07 00:01:15;;;;;;;3.47;3.38;;;;;;;13.63;98.00;102344.19;6389526;27;20508;-71
2021/10/07 00:04:29;;;;;;;4.82;3.83;;;;;;;13.73;97.61;102341.94;6389612;27;20371;-71
2021/10/07 00:07:35;;;;;;;3.67;3.35;;;;;;;13.76;97.25;102344.25;6391460;27;20252;-71
2021/10/07 00:10:39;;;;;;;5.50;3.70;;;;;;;13.56;98.10;102348.78;6390140;27;20501;-71
2021/10/07 00:13:44;;;;;;;5.38;3.60;;;;;;;13.54;98.61;102350.88;6390631;27;20182;-71
2021/10/07 00:16:48;;;;;;;4.57;4.13;;;;;;;13.56;98.46;102354.25;6391526;27;20189;-71
2021/10/07 00:19:53;;;;;;;4.03;3.83;;;;;;;13.55;98.42;102358.06;6390077;27;20367;-71
2021/10/07 00:22:58;;;;;;;4.53;4.15;;;;;;;13.60;98.40;102355.56;6390998;27;20189;-71
2021/10/07 00:26:02;;;;;;;5.47;3.95;;;;;;;13.61;98.18;102357.25;6391333;27;20181;-72
2021/10/07 00:29:25;;;;;;;4.63;4.22;;;;;;;13.52;99.13;102358.47;6391187;27;20250;-71
2021/10/07 00:32:32;;;;;;;4.43;4.13;;;;;;;13.54;98.95;102359.09;6389660;27;20209;-71
2021/10/07 00:35:51;;;;;;;4.40;4.03;;;;;;;13.57;99.37;102355.97;6390682;27;20181;-71
2021/10/07 00:39:05;;;;;;;3.80;3.60;;;;;;;13.49;99.49;102358.84;6390483;27;20257;-71
2021/10/07 00:42:11;;;;;;;4.85;4.30;;;;;;;13.60;98.80;102361.06;6389257;27;20265;-72
2021/10/07 00:45:16;;;;;;;5.13;4.20;;;;;;;13.63;98.95;102359.81;6389880;27;20181;-71
2021/10/07 00:48:20;;;;;;;4.80;4.35;;;;;;;13.54;99.25;102366.47;6389415;27;20484;-71
2021/10/07 00:51:24;;;;;;;4.32;4.13;;;;;;;13.55;99.13;102368.19;6388913;27;20233;-71
2021/10/07 00:54:30;;;;;;;4.85;4.45;;;;;;;13.53;98.72;102371.09;6390295;27;20189;-71
2021/10/07 00:57:34;;;;;;;4.25;4.05;;;;;;;13.53;99.15;102371.09;6388862;27;20204;-71
2021/10/07 01:00:38;;;;;;;4.15;3.95;;;;;;;13.55;99.35;102374.50;6389007;27;20370;-71
2021/10/07 01:03:42;;;;;;;5.50;4.35;;;;;;;13.52;99.60;102385.88;6388914;27;20185;-71
2021/10/07 01:06:47;;;;;;;5.07;4.40;;;;;;;13.46;100.00;102389.41;6389323;27;20257;-71
2021/10/07 01:09:53;;;;;;;5.05;4.10;;;;;;;13.57;100.00;102402.59;6389937;27;20182;-71
2021/10/07 01:12:57;;;;;;;6.93;4.53;;;;;;;13.61;99.77;102394.81;6389087;27;20240;-71
2021/10/07 01:16:02;;;;;;;5.10;4.70;;;;;;;13.62;99.55;102389.13;6389050;27;20182;-71
2021/10/07 01:19:07;;;;;;;8.60;4.15;;;;;;;13.63;99.94;102393.56;6389619;27;20189;-71
2021/10/07 01:22:14;;;;;;;4.88;4.47;;;;;;;13.63;99.67;102406.44;6388462;27;20382;-71
2021/10/07 01:25:18;;;;;;;5.03;4.68;;;;;;;13.63;99.96;102415.50;6388461;27;20376;-71
2021/10/07 01:28:22;;;;;;;4.70;4.28;;;;;;;13.72;99.09;102408.81;6389369;27;20260;-71
2021/10/07 01:31:26;;;;;;;5.05;4.60;;;;;;;13.64;99.32;102411.69;6388242;27;20393;-71
2021/10/07 01:34:31;;;;;;;4.60;4.40;;;;;;;13.63;99.19;102403.69;6389289;27;20188;-72
2021/10/07 01:37:37;;;;;;;4.18;3.97;;;;;;;13.61;99.17;102414.84;6388766;27;20197;-72
2021/10/07 01:40:41;;;;;;;4.50;4.30;;;;;;;13.60;98.59;102415.91;6388749;27;20361;-71
2021/10/07 01:43:45;;;;;;;4.20;4.00;;;;;;;13.59;98.99;102414.19;6388658;27;20181;-71
2021/10/07 01:46:50;;;;;;;4.63;4.28;;;;;;;13.62;98.75;102423.91;6389369;27;20188;-71
2021/10/07 01:49:54;;;;;;;4.65;4.40;;;;;;;13.51;98.62;102428.03;6387683;27;20475;-71
2021/10/07 01:52:59;;;;;;;4.60;4.20;;;;;;;13.43;99.23;102425.44;6389009;27;20259;-71
2021/10/07 01:56:04;;;;;;;4.78;4.30;;;;;;;13.53;97.89;102431.44;6388742;27;20181;-71
2021/10/07 01:59:10;;;;;;;4.93;4.43;;;;;;;13.55;97.61;102432.09;6388051;27;20182;-71
2021/10/07 02:02:15;;;;;;;4.53;4.32;;;;;;;13.42;97.75;102442.09;6387568;27;20215;-72
2021/10/07 02:05:19;;;;;;;4.57;4.32;;;;;;;13.38;98.27;102440.81;6388248;27;20181;-71
2021/10/07 02:08:25;;;;;;;5.65;4.35;;;;;;;13.42;97.60;102442.94;6387536;27;20276;-72
2021/10/07 02:11:29;;;;;;;4.72;4.30;;;;;;;13.38;97.31;102449.84;6388443;27;20237;-71
2021/10/07 02:14:34;;;;;;;4.82;4.45;;;;;;;13.33;98.42;102449.59;6387802;27;20197;-71
2021/10/07 02:17:38;;;;;;;4.90;4.57;;;;;;;13.43;98.05;102454.78;6387384;27;20473;-71
2021/10/07 02:20:42;;;;;;;5.00;4.30;;;;;;;13.40;98.93;102464.25;6387310;27;20244;-71
2021/10/07 02:23:48;;;;;;;4.80;4.50;;;;;;;13.43;98.90;102469.31;6388630;27;20186;-71
2021/10/07 02:26:52;;;;;;;4.43;4.20;;;;;;;13.49;99.15;102484.97;6387223;27;20257;-71
2021/10/07 02:29:56;;;;;;;4.78;4.47;;;;;;;13.58;97.25;102478.34;6387588;27;20188;-71
2021/10/07 02:33:00;;;;;;;4.55;4.20;;;;;;;13.50;97.73;102481.22;6388103;27;20215;-71
2021/10/07 02:36:05;;;;;;;5.40;4.10;;;;;;;13.52;97.04;102481.84;6387332;28;20189;-71
2021/10/07 02:39:11;;;;;;;5.18;3.92;;;;;;;13.59;95.47;102490.97;6388257;28;20226;-71
2021/10/07 02:42:16;;;;;;;4.43;4.10;;;;;;;13.46;96.45;102474.41;6387277;28;20234;-71
2021/10/07 02:45:20;;;;;;;3.80;3.60;;;;;;;13.31;97.16;102486.47;6387680;28;20188;-71
2021/10/07 02:48:24;;;;;;;4.28;4.05;;;;;;;13.28;96.79;102482.22;6387072;28;20518;-72
2021/10/07 02:51:28;;;;;;;4.07;3.88;;;;;;;13.28;96.34;102476.75;6387926;28;20213;-71
2021/10/07 02:54:33;;;;;;;7.13;4.13;;;;;;;13.25;96.17;102482.63;6389968;27;20252;-71
2021/10/07 02:57:40;;;;;;;4.18;3.97;;;;;;;13.17;96.39;102485.50;6393316;27;20181;-71
2021/10/07 03:00:44;;;;;;;3.63;3.42;;;;;;;13.16;95.91;102494.75;6392581;27;20182;-71
2021/10/07 03:03:53;;;;;;;4.30;3.95;;;;;;;13.11;95.70;102491.75;6391871;27;20493;-71
2021/10/07 03:06:57;;;;;;;3.88;3.78;;;;;;;13.20;95.57;102485.09;6393191;27;20182;-71
2021/10/07 03:10:06;;;;;;;5.50;4.30;;;;;;;13.11;95.65;102491.75;6392840;27;20219;-71
2021/10/07 03:13:12;;;;;;;4.10;3.90;;;;;;;12.93;96.66;102488.56;6392975;27;20205;-71
2021/10/07 03:16:16;;;;;;;4.53;4.07;;;;;;;12.96;96.62;102488.19;6392706;27;20181;-71
2021/10/07 03:19:20;;;;;;;4.65;4.35;;;;;;;12.90;96.75;102489.78;6391481;27;20517;-71
2021/10/07 03:22:25;;;;;;;4.20;3.90;;;;;;;12.90;96.50;102491.69;6392858;27;20207;-71
2021/10/07 03:25:30;;;;;;;4.38;4.05;;;;;;;12.85;97.19;102492.25;6392707;27;20244;-71
2021/10/07 03:28:34;;;;;;;4.47;3.72;;;;;;;12.70;97.45;102501.53;6391331;27;20371;-71
2021/10/07 03:31:38;;;;;;;4.55;4.20;;;;;;;12.76;96.98;102503.53;6392642;27;20185;-71
2021/10/07 03:34:43;;;;;;;4.57;4.18;;;;;;;12.80;97.14;102504.84;6392350;27;20268;-71
2021/10/07 03:37:47;;;;;;;4.70;4.50;;;;;;;12.97;95.47;102500.81;6392613;27;20204;-72
2021/10/07 03:40:52;;;;;;;4.43;4.22;;;;;;;12.83;96.04;102504.47;6391640;27;20225;-72
2021/10/07 03:43:56;;;;;;;4.00;3.80;;;;;;;12.83;95.78;102502.56;6392034;27;20185;-72
2021/10/07 03:47:00;;;;;;;4.30;4.05;;;;;;;12.79;95.92;102497.69;6390949;27;20446;-71
2021/10/07 03:50:06;;;;;;;4.45;4.15;;;;;;;12.61;96.16;102499.97;6390752;27;20352;-71
2021/10/07 03:53:10;;;;;;;4.80;4.15;;;;;;;12.62;96.63;102490.69;6391721;27;20255;-71
2021/10/07 03:56:16;;;;;;;4.57;4.28;;;;;;;12.68;95.89;102484.47;6392023;27;20197;-71
2021/10/07 03:59:20;;;;;;;4.32;4.10;;;;;;;12.57;96.52;102477.56;6390963;27;20182;-71
2021/10/07 04:02:24;;;;;;;5.32;4.57;;;;;;;12.45;96.74;102485.41;6391813;27;20222;-72
2021/10/07 04:05:28;;;;;;;5.35;4.85;;;;;;;12.39;97.26;102494.41;6390936;27;20189;-71
2021/10/07 04:08:33;;;;;;;5.40;4.85;;;;;;;12.48;96.81;102495.13;6391737;27;20219;-71
2021/10/07 04:11:39;;;;;;;4.18;3.70;;;;;;;12.54;96.13;102500.72;6391705;27;20205;-71
2021/10/07 04:14:43;;;;;;;4.63;4.20;;;;;;;12.54;95.32;102503.44;6390126;27;20209;-71
2021/10/07 04:17:47;;;;;;;4.35;4.10;;;;;;;12.48;96.13;102512.41;6391452;27;20227;-71
2021/10/07 04:20:51;;;;;;;4.80;4.50;;;;;;;12.56;95.36;102508.72;6391367;27;20248;-71
2021/10/07 04:23:55;;;;;;;5.03;4.50;;;;;;;12.43;95.80;102517.59;6390007;27;20482;-71
2021/10/07 04:27:01;;;;;;;4.40;4.20;;;;;;;12.44;95.23;102532.16;6390355;27;20177;-71
2021/10/07 04:30:08;;;;;;;4.70;4.40;;;;;;;12.37;96.20;102526.59;6389816;27;20425;-72
2021/10/07 04:33:18;;;;;;;6.55;4.93;;;;;;;12.33;96.71;102535.34;6390603;27;20212;-71
2021/10/07 04:36:23;;;;;;;7.93;4.30;;;;;;;12.36;95.88;102534.97;6391037;27;20188;-71
2021/10/07 04:39:27;;;;;;;5.07;4.55;;;;;;;12.28;96.32;102543.25;6390409;27;20239;-72
2021/10/07 04:42:32;;;;;;;4.43;4.10;;;;;;;12.27;96.09;102547.91;6389524;27;20520;-72
2021/10/07 04:45:36;;;;;;;5.07;4.60;;;;;;;12.26;96.07;102561.75;6390793;27;20188;-71
2021/10/07 04:48:40;;;;;;;4.70;4.47;;;;;;;12.33;95.24;102554.50;6389731;27;20315;-71
2021/10/07 04:51:44;;;;;;;5.82;4.47;;;;;;;12.32;95.50;102575.56;6389276;27;20216;-72
2021/10/07 04:54:48;;;;;;;7.03;4.28;;;;;;;12.26;95.11;102584.50;6390221;27;20212;-71
2021/10/07 04:57:54;;;;;;;6.78;4.22;;;;;;;12.16;95.46;102583.94;6389031;27;20252;-71
2021/10/07 05:00:58;;;;;;;6.97;4.60;;;;;;;12.09;96.29;102584.84;6389277;27;20209;-72
2021/10/07 05:04:03;;;;;;;4.63;4.38;;;;;;;12.20;95.74;102589.88;6390213;27;20189;-71
2021/10/07 05:07:09;;;;;;;5.50;5.00;;;;;;;12.12;96.48;102589.97;6390035;27;20199;-71
2021/10/07 05:10:13;;;;;;;6.78;4.55;;;;;;;12.16;96.02;102589.41;6388669;27;20260;-71
2021/10/07 05:13:19;;;;;;;6.57;4.57;;;;;;;12.34;94.56;102595.38;6389805;27;20220;-70
2021/10/07 05:16:23;;;;;;;4.78;4.40;;;;;;;12.26;94.96;102600.94;6389352;27;20182;-71
2021/10/07 05:19:28;;;;;;;4.93;4.55;;;;;;;12.19;95.38;102621.03;6389459;27;20258;-71
2021/10/07 05:22:32;;;;;;;5.25;4.82;;;;;;;12.28;94.71;102620.75;6389060;27;20209;-71
2021/10/07 05:25:36;;;;;;;6.13;4.68;;;;;;;12.15;95.19;102636.94;6388455;27;20379;-70
2021/10/07 05:28:44;;;;;;;7.65;4.80;;;;;;;12.09;95.78;102645.91;6389257;27;20181;-71
2021/10/07 05:31:49;;;;;;;5.20;4.90;;;;;;;12.05;96.00;102641.81;6389319;27;20188;-71
2021/10/07 05:34:53;;;;;;;5.47;4.90;;;;;;;12.04;96.27;102631.94;6387956;27;20272;-71
2021/10/07 05:37:57;;;;;;;5.15;4.85;;;;;;;12.00;96.45;102630.56;6388619;27;20197;-71
2021/10/07 05:41:02;;;;;;;7.22;4.90;;;;;;;11.98;96.32;102629.06;6388745;27;20266;-71
2021/10/07 05:44:10;;;;;;;5.68;5.28;;;;;;;11.99;96.35;102622.56;6388987;27;20260;-71
2021/10/07 05:47:14;;;;;;;5.53;5.13;;;;;;;12.07;96.04;102617.84;6389155;27;20189;-71
2021/10/07 05:50:19;;;;;;;5.32;4.78;;;;;;;12.07;95.91;102611.56;6388856;27;20285;-71
2021/10/07 05:53:24;;;;;;;5.50;5.00;;;;;;;11.87;96.64;102611.19;6387662;27;20191;-71
2021/10/07 05:56:28;;;;;;;9.93;5.00;;;;;;;12.08;96.15;102602.28;6387447;27;20213;-71
2021/10/07 05:59:33;;;;;;;6.88;5.28;;;;;;;12.13;95.48;102621.75;6388112;27;20220;-71
2021/10/07 06:02:38;;;;;;;5.90;5.45;;;;;;;12.15;96.03;102620.53;6387352;27;20181;-71
2021/10/07 06:05:44;;;;;;;5.80;4.63;;;;;;;12.29;94.83;102622.47;6387247;27;20185;-71
2021/10/07 06:08:49;;;;;;;5.38;4.63;;;;;;;12.30;93.74;102624.16;6388482;27;20213;-71
2021/10/07 06:11:53;;;;;;;5.13;4.85;;;;;;;12.47;93.29;102622.97;6388418;27;20182;-71
2021/10/07 06:14:58;;;;;;;5.47;5.00;;;;;;;12.53;92.79;102627.69;6388286;27;20236;-72
2021/10/07 06:18:03;;;;;;;5.82;5.18;;;;;;;12.52;93.32;102645.16;6388250;27;20358;-71
2021/10/07 06:21:07;;;;;;;4.93;4.65;;;;;;;12.48;93.61;102649.31;6387894;27;20257;-72
2021/10/07 06:24:31;;;;;;;6.25;5.22;;;;;;;12.44;93.73;102653.47;6387388;27;20484;-72
2021/10/07 06:27:35;;;;;;;4.95;4.65;;;;;;;12.47;94.25;102661.31;6388527;27;20250;-72
2021/10/07 06:30:41;;;;;;;4.68;4.47;;;;;;;12.57;94.39;102655.56;6387102;27;20469;-71
2021/10/07 06:33:47;;;;;;;5.78;5.32;;;;;;;12.56;94.67;102665.66;6386851;27;20181;-72
2021/10/07 06:36:51;;;;;;;5.55;5.18;;;;;;;12.55;95.05;102661.22;6381975;28;20277;-72
2021/10/07 06:39:55;;;;;;;5.65;4.68;;;;;;;12.64;93.48;102664.72;6376622;28;20432;-72
2021/10/07 06:42:59;;;;;;;8.25;5.40;;;;;;;12.67;93.68;102658.88;6386898;28;20212;-72
2021/10/07 06:46:05;;;;;;;9.50;4.75;;;;;;;12.65;93.50;102671.06;6387919;28;20190;-72
2021/10/07 06:49:09;;;;;;;6.20;4.80;;;;;;;12.66;93.22;102683.72;6386781;28;20489;-71
2021/10/07 06:52:13;;;;;;;12.88;4.90;;;;;;;12.81;93.56;102693.66;6387843;28;20302;-71
2021/10/07 06:55:17;;;;;;;5.53;5.05;;;;;;;12.81;93.48;102692.81;6387816;28;20373;-72
2021/10/07 06:58:22;;;;;;;13.40;4.65;;;;;;;12.89;92.00;102695.47;6386609;28;20285;-72
2021/10/07 07:01:30;;;;;;;5.85;4.78;;;;;;;12.79;93.66;102700.38;6387950;28;20181;-71
2021/10/07 07:04:34;;;;;;;6.85;4.65;;;;;;;12.84;92.85;102708.88;6387485;28;20185;-72
2021/10/07 07:07:38;;;;;;;7.45;5.07;;;;;;;12.91;92.87;102726.25;6387295;28;20453;-72
2021/10/07 07:10:43;;;;;;;5.07;4.68;;;;;;;12.83;92.53;102723.59;6387919;28;20213;-71
2021/10/07 07:13:47;;;;;;;6.72;5.05;;;;;;;12.89;92.14;102722.88;6387642;28;20248;-71
2021/10/07 07:16:53;;;;;;;6.05;4.88;;;;;;;12.78;92.64;102728.78;6386354;28;20209;-71
2021/10/07 07:20:12;;;;;;;5.18;4.70;;;;;;;12.80;92.41;102734.94;6386520;28;20205;-72
2021/10/07 07:23:16;;;;;;;8.02;5.53;;;;;;;12.83;92.84;102740.03;6387440;28;20182;-70
2021/10/07 07:26:20;;;;;;;11.52;4.93;;;;;;;12.95;92.99;102738.53;6386303;28;20481;-72
2021/10/07 07:29:25;;;;;;;8.98;5.05;;;;;;;12.88;92.34;102745.81;6386484;28;20378;-71
2021/10/07 07:32:30;;;;;;;5.55;4.45;;;;;;;12.89;92.95;102758.47;6387200;28;20248;-71
2021/10/07 07:35:34;;;;;;;11.98;4.85;;;;;;;13.05;92.61;102755.56;6387453;28;20206;-70
2021/10/07 07:38:38;;;;;;;5.55;5.05;;;;;;;13.09;91.73;102762.41;6386160;28;20197;-72
2021/10/07 07:41:42;;;;;;;4.95;4.65;;;;;;;13.19;91.75;102757.50;6389654;27;20434;-72
2021/10/07 07:44:47;;;;;;;5.05;4.70;;;;;;;13.31;90.55;102782.56;6390888;27;20186;-72
2021/10/07 07:47:53;;;;;;;4.72;4.43;;;;;;;13.18;91.25;102785.94;6390682;27;20435;-72
2021/10/07 07:50:57;;;;;;;10.15;4.32;;;;;;;13.17;91.17;102789.75;6391130;27;20181;-72
2021/10/07 07:54:02;;;;;;;5.20;4.80;;;;;;;13.44;89.16;102794.56;6390647;27;20489;-72
2021/10/07 07:57:07;;;;;;;8.38;5.30;;;;;;;13.41;88.81;102794.94;6390325;27;20576;-72
2021/10/07 08:00:13;;;;;;;5.32;4.90;;;;;;;13.50;89.64;102810.28;6391795;27;20182;-72
2021/10/07 08:03:19;;;;;;;4.93;4.63;;;;;;;13.43;89.86;102803.84;6390605;27;20182;-72
2021/10/07 08:06:23;;;;;;;5.35;4.93;;;;;;;13.52;89.02;102802.72;6390823;27;20186;-71
2021/10/07 08:09:27;;;;;;;4.90;4.55;;;;;;;13.51;88.86;102805.63;6391244;27;20211;-71
2021/10/07 08:12:33;;;;;;;5.18;4.72;;;;;;;13.62;87.21;102808.75;6391524;27;20220;-72
2021/10/07 08:15:38;;;;;;;7.72;5.25;;;;;;;13.47;88.36;102816.16;6390093;27;20216;-72
2021/10/07 08:18:44;;;;;;;12.52;5.35;;;;;;;13.54;88.55;102817.09;6390018;27;20493;-72
2021/10/07 08:21:48;;;;;;;7.45;4.72;;;;;;;13.42;88.59;102818.59;6389731;27;20371;-72
2021/10/07 08:24:52;;;;;;;4.65;4.30;;;;;;;13.50;89.11;102815.78;6391000;27;20253;-71
2021/10/07 08:27:56;;;;;;;5.05;4.60;;;;;;;13.47;89.04;102832.59;6389970;27;20469;-72
2021/10/07 08:31:01;;;;;;;4.78;4.35;;;;;;;13.52;89.09;102834.78;6389780;27;20209;-72
2021/10/07 08:34:06;;;;;;;5.32;4.50;;;;;;;13.65;87.82;102824.00;6390611;27;20190;-72
2021/10/07 08:37:11;;;;;;;8.30;4.63;;;;;;;13.71;87.69;102834.22;6389681;27;20516;-72
2021/10/07 08:40:16;;;;;;;4.45;4.13;;;;;;;13.71;88.56;102832.31;6389669;27;20252;-72
2021/10/07 08:43:20;;;;;;;4.45;4.20;;;;;;;13.69;87.75;102842.63;6389754;27;20188;-72
2021/10/07 08:46:24;;;;;;;5.65;4.07;;;;;;;13.73;88.26;102841.22;6390775;27;20217;-72
2021/10/07 08:49:35;;;;;;;4.80;4.22;;;;;;;13.94;86.20;102834.09;6390738;27;20248;-72
2021/10/07 08:52:39;;;;;;;7.03;4.18;;;;;;;13.89;87.02;102842.06;6388235;27;20280;-72
2021/10/07 08:55:44;;;;;;;5.72;4.20;;;;;;;13.98;86.07;102828.03;6389150;27;20505;-72
2021/10/07 08:58:48;;;;;;;5.28;3.97;;;;;;;13.85;86.48;102840.72;6390397;27;20203;-71
2021/10/07 09:01:56;;;;;;;4.15;3.90;;;;;;;13.74;86.74;102842.03;6388945;27;20401;-72
2021/10/07 09:05:09;;;;;;;9.10;3.97;;;;;;;13.63;87.56;102842.53;6389626;27;20188;-72
2021/10/07 09:08:18;;;;;;;6.38;4.32;;;;;;;13.68;87.90;102840.94;6390118;27;20182;-71
2021/10/07 09:11:26;;;;;;;4.40;4.10;;;;;;;13.59;87.43;102841.19;6388709;27;20483;-72
2021/10/07 09:14:32;;;;;;;5.70;4.40;;;;;;;13.43;87.87;102847.72;6388944;27;20485;-72
2021/10/07 09:17:36;;;;;;;5.05;4.30;;;;;;;13.56;87.80;102850.66;6389892;27;20210;-72
2021/10/07 09:20:43;;;;;;;4.13;4.00;;;;;;;13.54;88.63;102852.75;6390144;27;20248;-72
2021/10/07 09:23:47;;;;;;;4.43;4.15;;;;;;;13.39;89.15;102867.47;6389854;27;20185;-72
2021/10/07 09:26:52;;;;;;;5.00;4.05;;;;;;;13.46;88.70;102871.16;6389508;27;20193;-71
2021/10/07 09:29:58;;;;;;;4.60;4.30;;;;;;;13.52;90.03;102860.31;6388414;27;20458;-70
2021/10/07 09:33:02;;;;;;;5.05;4.55;;;;;;;13.31;88.71;102846.47;6388063;27;20189;-70
2021/10/07 09:36:13;;;;;;;5.78;5.18;;;;;;;13.46;89.28;102847.34;6389116;27;20216;-70
2021/10/07 09:39:21;;;;;;;4.38;4.10;;;;;;;13.32;89.02;102834.47;6388899;27;20398;-71
2021/10/07 09:42:29;;;;;;;5.85;4.57;;;;;;;13.60;87.46;102827.31;6389288;27;20217;-72
2021/10/07 09:45:34;;;;;;;6.13;4.68;;;;;;;13.51;87.77;102839.41;6389522;27;20227;-72
2021/10/07 09:48:40;;;;;;;6.03;4.38;;;;;;;13.64;88.62;102836.84;6388819;27;20248;-72
2021/10/07 09:51:47;;;;;;;4.85;4.43;;;;;;;13.68;88.07;102835.44;6389268;27;20250;-72
2021/10/07 09:54:56;;;;;;;8.55;4.50;;;;;;;13.68;87.53;102854.66;6389112;27;20189;-72
2021/10/07 09:58:03;;;;;;;7.50;4.40;;;;;;;13.70;88.31;102855.31;6388934;27;20241;-71
2021/10/07 10:01:11;;;;;;;8.93;4.80;;;;;;;13.87;88.66;102860.63;6388562;27;20204;-72
2021/10/07 10:04:16;;;;;;;4.35;4.13;;;;;;;13.93;87.59;102876.31;6388337;27;20256;-71
2021/10/07 10:07:21;;;;;;;4.30;4.00;;;;;;;13.86;86.94;102869.88;6388467;27;20196;-71
2021/10/07 10:10:26;;;;;;;4.50;4.28;;;;;;;13.86;87.87;102876.22;6388412;27;20181;-71
2021/10/07 10:13:32;;;;;;;6.53;4.53;;;;;;;13.99;87.07;102870.91;6387276;27;20359;-71
2021/10/07 10:16:37;;;;;;;4.50;4.30;;;;;;;14.01;85.86;102867.97;6386958;27;20370;-71
2021/10/07 10:19:41;;;;;;;4.30;4.00;;;;;;;13.92;87.02;102874.63;6388028;27;20249;-72
2021/10/07 10:22:52;;;;;;;4.40;4.00;;;;;;;13.99;86.08;102875.56;6387146;27;20496;-71
2021/10/07 10:26:00;;;;;;;5.10;4.35;;;;;;;13.95;87.24;102879.69;6388332;27;20186;-71
2021/10/07 10:29:04;;;;;;;6.47;4.05;;;;;;;13.91;86.55;102883.88;6388520;27;20189;-71
2021/10/07 10:32:12;;;;;;;4.90;4.45;;;;;;;13.88;86.95;102896.09;6386830;27;20182;-71
2021/10/07 10:35:34;;;;;;;4.60;4.03;;;;;;;13.76;87.25;102898.44;6386939;27;20266;-72
2021/10/07 10:38:41;;;;;;;6.75;3.92;;;;;;;13.93;88.07;102898.25;6387694;28;20228;-72
2021/10/07 10:41:54;;;;;;;4.20;3.80;;;;;;;14.03;87.77;102896.06;6386642;28;20188;-71
2021/10/07 10:45:01;;;;;;;4.10;3.80;;;;;;;14.36;86.20;102897.38;6387553;28;20185;-72
2021/10/07 10:48:07;;;;;;;5.45;3.80;;;;;;;14.28;87.47;102897.47;6387806;28;20193;-72
2021/10/07 10:51:12;;;;;;;8.30;3.67;;;;;;;14.47;85.70;102902.41;6386885;28;20522;-72
2021/10/07 10:54:30;;;;;;;3.63;3.10;;;;;;;14.55;84.25;102905.03;6386677;28;20453;-72
2021/10/07 10:57:36;;;;;;;3.95;3.55;;;;;;;14.35;83.98;102899.28;6387940;28;20243;-71
2021/10/07 11:00:44;;;;;;;3.53;3.42;;;;;;;14.30;85.01;102925.59;6386696;28;20219;-71
2021/10/07 11:03:48;;;;;;;6.15;3.22;;;;;;;14.49;84.61;102927.78;6388049;28;20182;-71
2021/10/07 11:07:19;;;;;;;5.05;3.58;;;;;;;14.56;84.56;102912.22;6386603;28;20185;-72
2021/10/07 11:10:30;;;;;;;9.82;3.28;;;;;;;14.60;85.15;102919.03;6387897;28;20189;-71
2021/10/07 11:13:44;;;;;;;6.97;3.10;;;;;;;14.55;82.85;102910.53;6388055;28;20182;-71
2021/10/07 11:16:49;;;;;;;4.45;3.40;;;;;;;14.58;84.16;102920.28;6390183;27;20242;-72
2021/10/07 11:19:54;;;;;;;3.88;3.00;;;;;;;14.71;82.89;102923.19;6392234;27;20204;-71
2021/10/07 11:23:04;;;;;;;5.65;2.80;;;;;;;14.67;82.98;102925.44;6392210;27;20188;-71
2021/10/07 11:26:11;;;;;;;8.80;3.00;;;;;;;14.67;83.19;102919.97;6391139;27;20477;-72
2021/10/07 11:29:15;;;;;;;3.22;2.90;;;;;;;14.68;84.79;102927.16;6392260;27;20189;-71
2021/10/07 11:32:19;;;;;;;4.20;3.33;;;;;;;14.59;83.33;102922.81;6392025;27;20181;-71
2021/10/07 11:35:23;;;;;;;4.88;3.20;;;;;;;14.77;82.80;102928.72;6392422;27;20258;-70
2021/10/07 11:38:28;;;;;;;7.13;2.92;;;;;;;14.71;83.36;102929.53;6391486;27;20504;-71
2021/10/07 11:41:34;;;;;;;3.00;2.80;;;;;;;14.71;82.76;102937.78;6390868;27;20496;-71
2021/10/07 11:44:45;;;;;;;3.17;2.97;;;;;;;14.73;82.58;102941.19;6391905;27;20182;-70
2021/10/07 11:47:51;;;;;;;6.03;2.70;;;;;;;14.75;83.25;102943.72;6390734;27;20482;-70
2021/10/07 11:50:58;;;;;;;3.53;2.92;;;;;;;14.78;82.62;102955.19;6390563;27;20266;-70
2021/10/07 11:54:04;;;;;;;3.30;2.50;;;;;;;14.90;82.63;102959.13;6391812;27;20182;-70
2021/10/07 11:57:10;;;;;;;7.55;3.15;;;;;;;14.99;82.55;102957.13;6391554;27;20185;-71
2021/10/07 12:00:15;;;;;;;8.02;2.90;;;;;;;15.01;83.54;102955.88;6391664;27;20182;-71
2021/10/07 12:03:23;;;;;;;6.97;3.25;;;;;;;15.02;83.50;102960.31;6391465;27;20218;-71
2021/10/07 12:06:28;;;;;;;3.83;2.90;;;;;;;15.10;82.71;102947.50;6391422;27;20182;-71
2021/10/07 12:09:38;;;;;;;3.08;2.63;;;;;;;15.02;82.53;102952.06;6390213;27;20253;-71
2021/10/07 12:13:11;;;;;;;3.25;2.95;;;;;;;15.01;83.62;102955.88;6391651;27;20213;-71
2021/10/07 12:16:17;;;;;;;3.22;2.60;;;;;;;15.12;82.62;102953.66;6391261;27;20189;-71
2021/10/07 12:19:24;;;;;;;5.95;2.50;;;;;;;15.16;82.07;102957.69;6391137;27;20216;-71
2021/10/07 12:22:29;;;;;;;5.50;2.88;;;;;;;15.12;82.15;102956.41;6391157;27;20188;-71
2021/10/07 12:25:41;;;;;;;3.65;2.47;;;;;;;15.15;82.57;102956.00;6390921;27;20181;-71
2021/10/07 12:28:50;;;;;;;3.78;3.30;;;;;;;15.15;82.56;102945.00;6391317;27;20182;-73
2021/10/07 12:31:56;;;;;;;3.85;2.75;;;;;;;15.28;82.23;102950.63;6391066;27;20213;-71
2021/10/07 12:35:03;;;;;;;4.38;2.90;;;;;;;15.22;82.92;102959.66;6389778;27;20453;-71
2021/10/07 12:38:07;;;;;;;3.85;3.00;;;;;;;15.27;82.88;102949.78;6389989;27;20416;-71
2021/10/07 12:41:12;;;;;;;6.70;3.22;;;;;;;15.18;83.01;102955.59;6389643;27;20299;-71
2021/10/07 12:44:20;;;;;;;5.75;2.80;;;;;;;15.32;83.80;102957.44;6390524;27;20242;-71
2021/10/07 12:47:28;;;;;;;3.08;2.65;;;;;;;15.36;82.75;102969.72;6389433;27;20542;-71
2021/10/07 12:50:35;;;;;;;7.82;3.70;;;;;;;15.38;82.43;102967.66;6390702;27;20244;-71
2021/10/07 12:53:41;;;;;;;3.20;2.92;;;;;;;15.42;82.38;102963.44;6389263;27;20403;-71
2021/10/07 12:56:47;;;;;;;4.15;2.88;;;;;;;15.51;81.49;102963.13;6389214;27;20473;-71
2021/10/07 12:59:56;;;;;;;4.00;3.35;;;;;;;15.39;81.56;102952.84;6389791;27;20219;-72
2021/10/07 13:03:01;;;;;;;4.53;2.63;;;;;;;15.54;81.24;102967.38;6390417;27;20186;-72
2021/10/07 13:06:08;;;;;;;5.75;2.95;;;;;;;15.50;80.33;102977.09;6389792;27;20261;-71
2021/10/07 13:09:13;;;;;;;3.30;2.40;;;;;;;15.39;80.03;102969.34;6390222;27;20216;-71
2021/10/07 13:12:18;;;;;;;3.83;2.10;;;;;;;15.44;79.85;102975.09;6388732;27;20410;-71
2021/10/07 13:15:24;;;;;;;2.70;2.42;;;;;;;15.48;80.35;102973.72;6389593;27;20181;-72
2021/10/07 13:18:29;;;;;;;3.58;2.97;;;;;;;15.55;79.86;102969.97;6388446;27;20212;-71
2021/10/07 13:21:33;;;;;;;2.40;2.30;;;;;;;15.58;79.53;102974.22;6388312;27;20218;-71
2021/10/07 13:24:37;;;;;;;3.00;2.78;;;;;;;15.55;79.47;102983.72;6389435;27;20189;-71
2021/10/07 13:27:43;;;;;;;4.07;2.20;;;;;;;15.56;79.19;102981.81;6389433;27;20190;-71
2021/10/07 13:30:49;;;;;;;5.03;2.40;;;;;;;15.64;79.24;102990.78;6389245;27;20221;-71
2021/10/07 13:33:53;;;;;;;5.40;2.55;;;;;;;15.67;78.58;102984.03;6388118;27;20347;-71
2021/10/07 13:36:57;;;;;;;6.63;2.33;;;;;;;15.50;78.63;102993.63;6381134;27;20203;-71
2021/10/07 13:40:01;;;;;;;4.15;2.10;;;;;;;15.54;78.82;102983.91;6378955;27;20236;-71
2021/10/07 13:43:07;;;;;;;3.80;2.40;;;;;;;15.57;78.75;102994.53;6389255;27;20182;-72
2021/10/07 13:46:12;;;;;;;11.35;2.40;;;;;;;15.56;79.53;102992.84;6389461;27;20260;-71
2021/10/07 13:49:17;;;;;;;2.97;2.22;;;;;;;15.51;79.19;102996.16;6389214;27;20189;-72
2021/10/07 13:52:25;;;;;;;2.30;2.20;;;;;;;15.60;79.12;102999.63;6388843;27;20182;-71
2021/10/07 13:55:30;;;;;;;5.45;2.40;;;;;;;15.66;78.89;103001.59;6388953;27;20245;-72
2021/10/07 13:58:35;;;;;;;3.50;2.40;;;;;;;15.61;78.53;103012.34;6388728;27;20209;-71
2021/10/07 14:01:40;;;;;;;4.57;2.40;;;;;;;15.51;77.94;103007.16;6388600;27;20181;-72
2021/10/07 14:04:45;;;;;;;2.30;2.20;;;;;;;15.53;78.04;103015.22;6388014;27;20181;-72
2021/10/07 14:07:49;;;;;;;2.92;2.10;;;;;;;15.55;77.37;103013.13;6388724;27;20249;-72
2021/10/07 14:10:54;;;;;;;3.45;2.10;;;;;;;15.52;77.71;103008.03;6387458;27;20269;-72
2021/10/07 14:13:58;;;;;;;7.90;3.38;;;;;;;15.52;78.28;103019.03;6387605;27;20189;-72
2021/10/07 14:17:04;;;;;;;7.13;2.35;;;;;;;15.28;77.71;103033.16;6388387;27;20181;-72
2021/10/07 14:20:10;;;;;;;2.58;2.40;;;;;;;15.35;78.16;103025.81;6388189;27;20209;-71
2021/10/07 14:23:14;;;;;;;5.18;2.40;;;;;;;15.33;78.60;103025.16;6388466;27;20181;-71